sensor_id;sensor_type;location;lat;lon;timestamp;pressure;altitude;pressure_sealevel;temperature;humidity
48652;BME280;34442;52.362;-1.302;2023-07-08T00:00:14;99954.06;;;21.36;59.37
48652;BME280;34442;52.362;-1.302;2023-07-08T00:02:41;99954.31;;;21.40;58.70
48652;BME280;34442;52.362;-1.302;2023-07-08T00:05:08;99943.41;;;21.35;58.87
48652;BME280;34442;52.362;-1.302;2023-07-08T00:07:35;99952.41;;;21.35;58.89
48652;BME280;34442;52.362;-1.302;2023-07-08T00:10:00;99946.97;;;21.30;59.12
48652;BME280;34442;52.362;-1.302;2023-07-08T00:12:25;99947.28;;;21.28;59.48
48652;BME280;34442;52.362;-1.302;2023-07-08T00:14:51;99950.88;;;21.24;59.56
48652;BME280;34442;52.362;-1.302;2023-07-08T00:17:16;99949.59;;;21.16;59.76
48652;BME280;34442;52.362;-1.302;2023-07-08T00:19:42;99951.16;;;21.22;59.76
48652;BME280;34442;52.362;-1.302;2023-07-08T00:22:13;99941.09;;;21.18;60.03
48652;BME280;34442;52.362;-1.302;2023-07-08T00:24:42;99936.47;;;21.13;60.37
48652;BME280;34442;52.362;-1.302;2023-07-08T00:27:11;99939.22;;;21.13;60.25
48652;BME280;34442;52.362;-1.302;2023-07-08T00:29:37;99942.25;;;21.12;60.55
48652;BME280;34442;52.362;-1.302;2023-07-08T00:32:10;99940.59;;;21.11;61.14
48652;BME280;34442;52.362;-1.302;2023-07-08T00:34:36;99940.94;;;21.04;60.98
48652;BME280;34442;52.362;-1.302;2023-07-08T00:37:01;99937.28;;;21.14;60.56
48652;BME280;34442;52.362;-1.302;2023-07-08T00:39:30;99940.06;;;21.09;60.89
48652;BME280;34442;52.362;-1.302;2023-07-08T00:41:56;99939.53;;;21.06;60.88
48652;BME280;34442;52.362;-1.302;2023-07-08T00:44:23;99936.22;;;21.10;60.97
48652;BME280;34442;52.362;-1.302;2023-07-08T00:47:02;99937.03;;;21.15;61.66
48652;BME280;34442;52.362;-1.302;2023-07-08T00:49:37;99920.75;;;21.00;62.56
48652;BME280;34442;52.362;-1.302;2023-07-08T00:52:36;99929.97;;;21.09;63.19
48652;BME280;34442;52.362;-1.302;2023-07-08T00:55:06;99922.63;;;21.04;61.96
48652;BME280;34442;52.362;-1.302;2023-07-08T00:57:35;99928.72;;;20.96;62.12
48652;BME280;34442;52.362;-1.302;2023-07-08T01:00:06;99917.22;;;20.99;62.55
48652;BME280;34442;52.362;-1.302;2023-07-08T01:02:38;99917.72;;;21.01;62.25
48652;BME280;34442;52.362;-1.302;2023-07-08T01:05:11;99919.94;;;20.99;62.71
48652;BME280;34442;52.362;-1.302;2023-07-08T01:07:38;99912.38;;;20.91;63.05
48652;BME280;34442;52.362;-1.302;2023-07-08T01:10:09;99914.50;;;20.94;62.81
48652;BME280;34442;52.362;-1.302;2023-07-08T01:12:43;99912.63;;;20.90;63.87
48652;BME280;34442;52.362;-1.302;2023-07-08T01:15:09;99909.09;;;20.89;63.28
48652;BME280;34442;52.362;-1.302;2023-07-08T01:17:36;99912.94;;;20.88;63.73
48652;BME280;34442;52.362;-1.302;2023-07-08T01:20:04;99916.41;;;20.94;63.71
48652;BME280;34442;52.362;-1.302;2023-07-08T01:22:41;99913.75;;;20.89;64.08
48652;BME280;34442;52.362;-1.302;2023-07-08T01:25:09;99914.91;;;20.83;64.73
48652;BME280;34442;52.362;-1.302;2023-07-08T01:27:38;99909.44;;;20.83;64.65
48652;BME280;34442;52.362;-1.302;2023-07-08T01:30:06;99917.09;;;20.80;65.02
48652;BME280;34442;52.362;-1.302;2023-07-08T01:32:34;99919.75;;;20.86;65.04
48652;BME280;34442;52.362;-1.302;2023-07-08T01:35:02;99914.59;;;20.84;64.97
48652;BME280;34442;52.362;-1.302;2023-07-08T01:37:49;99913.28;;;20.76;68.32
48652;BME280;34442;52.362;-1.302;2023-07-08T01:42:47;99898.06;;;20.70;66.96
48652;BME280;34442;52.362;-1.302;2023-07-08T01:45:16;99899.94;;;20.75;66.56
48652;BME280;34442;52.362;-1.302;2023-07-08T01:47:44;99898.56;;;20.72;66.91
48652;BME280;34442;52.362;-1.302;2023-07-08T01:50:11;99888.75;;;20.71;66.95
48652;BME280;34442;52.362;-1.302;2023-07-08T01:52:37;99881.66;;;20.70;67.08
48652;BME280;34442;52.362;-1.302;2023-07-08T01:55:03;99880.88;;;20.65;67.59
48652;BME280;34442;52.362;-1.302;2023-07-08T02:02:20;99881.81;;;20.50;68.89
48652;BME280;34442;52.362;-1.302;2023-07-08T02:04:45;99883.69;;;20.54;68.70
48652;BME280;34442;52.362;-1.302;2023-07-08T02:07:10;99876.91;;;20.47;69.36
48652;BME280;34442;52.362;-1.302;2023-07-08T02:09:36;99860.56;;;20.42;69.77
48652;BME280;34442;52.362;-1.302;2023-07-08T02:12:01;99862.72;;;20.50;69.44
48652;BME280;34442;52.362;-1.302;2023-07-08T02:14:27;99865.44;;;20.50;69.67
48652;BME280;34442;52.362;-1.302;2023-07-08T02:16:52;99864.09;;;20.42;70.81
48652;BME280;34442;52.362;-1.302;2023-07-08T02:19:18;99864.41;;;20.36;70.88
48652;BME280;34442;52.362;-1.302;2023-07-08T02:21:44;99855.34;;;20.40;70.90
48652;BME280;34442;52.362;-1.302;2023-07-08T02:24:10;99863.53;;;20.50;70.80
48652;BME280;34442;52.362;-1.302;2023-07-08T02:26:35;99857.78;;;20.47;70.99
48652;BME280;34442;52.362;-1.302;2023-07-08T02:29:02;99854.00;;;20.43;71.45
48652;BME280;34442;52.362;-1.302;2023-07-08T02:31:28;99847.13;;;20.50;71.00
48652;BME280;34442;52.362;-1.302;2023-07-08T02:33:53;99847.94;;;20.51;71.24
48652;BME280;34442;52.362;-1.302;2023-07-08T02:36:19;99855.03;;;20.52;71.10
48652;BME280;34442;52.362;-1.302;2023-07-08T02:38:45;99853.91;;;20.58;71.22
48652;BME280;34442;52.362;-1.302;2023-07-08T02:41:11;99859.38;;;20.58;71.43
48652;BME280;34442;52.362;-1.302;2023-07-08T02:43:37;99848.47;;;20.53;71.84
48652;BME280;34442;52.362;-1.302;2023-07-08T02:46:03;99844.41;;;20.45;72.48
48652;BME280;34442;52.362;-1.302;2023-07-08T02:48:28;99846.84;;;20.47;72.70
48652;BME280;34442;52.362;-1.302;2023-07-08T02:51:04;99851.78;;;20.50;75.31
48652;BME280;34442;52.362;-1.302;2023-07-08T02:53:31;99849.31;;;20.48;72.76
48652;BME280;34442;52.362;-1.302;2023-07-08T02:55:57;99852.63;;;20.45;73.43
48652;BME280;34442;52.362;-1.302;2023-07-08T02:58:22;99854.22;;;20.51;73.08
48652;BME280;34442;52.362;-1.302;2023-07-08T03:00:52;99853.09;;;20.58;73.37
48652;BME280;34442;52.362;-1.302;2023-07-08T03:03:17;99836.72;;;20.52;73.21
48652;BME280;34442;52.362;-1.302;2023-07-08T03:05:43;99838.13;;;20.50;73.81
48652;BME280;34442;52.362;-1.302;2023-07-08T03:08:08;99837.31;;;20.49;73.85
48652;BME280;34442;52.362;-1.302;2023-07-08T03:10:33;99827.16;;;20.55;73.64
48652;BME280;34442;52.362;-1.302;2023-07-08T03:12:59;99825.28;;;20.50;74.10
48652;BME280;34442;52.362;-1.302;2023-07-08T03:15:24;99821.72;;;20.45;74.44
48652;BME280;34442;52.362;-1.302;2023-07-08T03:17:52;99829.94;;;20.45;74.55
48652;BME280;34442;52.362;-1.302;2023-07-08T03:20:22;99826.69;;;20.43;74.51
48652;BME280;34442;52.362;-1.302;2023-07-08T03:22:48;99832.66;;;20.45;74.82
48652;BME280;34442;52.362;-1.302;2023-07-08T03:25:13;99833.75;;;20.49;74.68
48652;BME280;34442;52.362;-1.302;2023-07-08T03:27:38;99833.19;;;20.47;74.61
48652;BME280;34442;52.362;-1.302;2023-07-08T03:30:04;99825.00;;;20.52;74.74
48652;BME280;34442;52.362;-1.302;2023-07-08T03:32:30;99837.53;;;20.53;74.98
48652;BME280;34442;52.362;-1.302;2023-07-08T03:34:55;99838.66;;;20.52;75.32
48652;BME280;34442;52.362;-1.302;2023-07-08T03:37:21;99836.41;;;20.59;75.04
48652;BME280;34442;52.362;-1.302;2023-07-08T03:39:46;99841.66;;;20.50;75.80
48652;BME280;34442;52.362;-1.302;2023-07-08T03:42:11;99827.66;;;20.62;75.47
48652;BME280;34442;52.362;-1.302;2023-07-08T03:44:37;99839.09;;;20.64;75.23
48652;BME280;34442;52.362;-1.302;2023-07-08T03:47:03;99842.97;;;20.58;75.73
48652;BME280;34442;52.362;-1.302;2023-07-08T03:49:28;99828.22;;;20.59;75.55
48652;BME280;34442;52.362;-1.302;2023-07-08T03:54:21;99828.78;;;20.56;76.07
48652;BME280;34442;52.362;-1.302;2023-07-08T03:56:48;99818.72;;;20.51;76.53
48652;BME280;34442;52.362;-1.302;2023-07-08T03:59:13;99804.75;;;20.58;76.15
48652;BME280;34442;52.362;-1.302;2023-07-08T04:01:39;99805.25;;;20.60;76.19
48652;BME280;34442;52.362;-1.302;2023-07-08T04:04:07;99808.22;;;20.64;76.01
48652;BME280;34442;52.362;-1.302;2023-07-08T04:06:34;99814.81;;;20.63;75.71
48652;BME280;34442;52.362;-1.302;2023-07-08T04:08:59;99832.66;;;20.50;76.67
48652;BME280;34442;52.362;-1.302;2023-07-08T04:11:26;99818.09;;;20.60;76.35
48652;BME280;34442;52.362;-1.302;2023-07-08T04:13:51;99812.88;;;20.63;76.22
48652;BME280;34442;52.362;-1.302;2023-07-08T04:16:22;99824.47;;;20.45;79.15
48652;BME280;34442;52.362;-1.302;2023-07-08T04:18:49;99831.25;;;20.52;77.21
48652;BME280;34442;52.362;-1.302;2023-07-08T04:21:16;99832.09;;;20.48;77.69
48652;BME280;34442;52.362;-1.302;2023-07-08T04:23:42;99825.78;;;20.58;76.85
48652;BME280;34442;52.362;-1.302;2023-07-08T04:26:08;99818.19;;;20.49;78.06
48652;BME280;34442;52.362;-1.302;2023-07-08T04:28:33;99826.03;;;20.56;77.54
48652;BME280;34442;52.362;-1.302;2023-07-08T04:30:59;99826.34;;;20.54;77.64
48652;BME280;34442;52.362;-1.302;2023-07-08T04:33:24;99824.75;;;20.48;78.06
48652;BME280;34442;52.362;-1.302;2023-07-08T04:35:52;99834.00;;;20.47;78.61
48652;BME280;34442;52.362;-1.302;2023-07-08T04:38:21;99835.41;;;20.50;78.34
48652;BME280;34442;52.362;-1.302;2023-07-08T04:40:48;99836.25;;;20.40;79.39
48652;BME280;34442;52.362;-1.302;2023-07-08T04:43:14;99824.75;;;20.48;78.96
48652;BME280;34442;52.362;-1.302;2023-07-08T04:45:41;99825.81;;;20.52;78.83
48652;BME280;34442;52.362;-1.302;2023-07-08T04:48:11;99819.00;;;20.50;79.67
48652;BME280;34442;52.362;-1.302;2023-07-08T04:50:42;99830.13;;;20.59;79.46
48652;BME280;34442;52.362;-1.302;2023-07-08T04:55:38;99833.13;;;20.57;79.82
48652;BME280;34442;52.362;-1.302;2023-07-08T04:58:05;99841.66;;;20.50;79.80
48652;BME280;34442;52.362;-1.302;2023-07-08T05:00:30;99855.34;;;20.45;80.27
48652;BME280;34442;52.362;-1.302;2023-07-08T05:02:56;99856.66;;;20.48;80.23
48652;BME280;34442;52.362;-1.302;2023-07-08T05:05:21;99855.94;;;20.37;81.27
48652;BME280;34442;52.362;-1.302;2023-07-08T05:07:50;99860.00;;;20.40;81.98
48652;BME280;34442;52.362;-1.302;2023-07-08T05:10:17;99875.28;;;20.46;81.56
48652;BME280;34442;52.362;-1.302;2023-07-08T05:12:43;99879.34;;;20.48;81.93
48652;BME280;34442;52.362;-1.302;2023-07-08T05:15:09;99883.16;;;20.52;82.26
48652;BME280;34442;52.362;-1.302;2023-07-08T05:17:37;99867.75;;;20.67;81.78
48652;BME280;34442;52.362;-1.302;2023-07-08T05:20:04;99870.84;;;20.55;82.36
48652;BME280;34442;52.362;-1.302;2023-07-08T05:22:30;99873.28;;;20.62;82.59
48652;BME280;34442;52.362;-1.302;2023-07-08T05:24:56;99870.44;;;20.72;81.64
48652;BME280;34442;52.362;-1.302;2023-07-08T05:27:22;99874.66;;;20.59;82.97
48652;BME280;34442;52.362;-1.302;2023-07-08T05:29:48;99871.06;;;20.64;83.25
48652;BME280;34442;52.362;-1.302;2023-07-08T05:32:14;99872.13;;;20.68;83.33
48652;BME280;34442;52.362;-1.302;2023-07-08T05:34:40;99869.69;;;20.66;83.64
48652;BME280;34442;52.362;-1.302;2023-07-08T05:37:06;99872.34;;;20.71;83.86
48652;BME280;34442;52.362;-1.302;2023-07-08T05:39:32;99881.06;;;20.73;84.10
48652;BME280;34442;52.362;-1.302;2023-07-08T05:41:57;99887.31;;;20.79;84.03
48652;BME280;34442;52.362;-1.302;2023-07-08T05:44:23;99893.50;;;20.90;83.65
48652;BME280;34442;52.362;-1.302;2023-07-08T05:46:49;99882.53;;;20.95;83.16
48652;BME280;34442;52.362;-1.302;2023-07-08T05:49:15;99890.16;;;20.98;83.30
48652;BME280;34442;52.362;-1.302;2023-07-08T05:51:41;99906.22;;;21.04;83.49
48652;BME280;34442;52.362;-1.302;2023-07-08T05:54:06;99909.13;;;21.13;83.34
48652;BME280;34442;52.362;-1.302;2023-07-08T05:56:31;99919.22;;;21.18;83.40
48652;BME280;34442;52.362;-1.302;2023-07-08T05:58:57;99912.63;;;21.19;83.39
48652;BME280;34442;52.362;-1.302;2023-07-08T06:01:23;99912.06;;;21.22;83.34
48652;BME280;34442;52.362;-1.302;2023-07-08T06:03:48;99919.41;;;21.26;83.21
48652;BME280;34442;52.362;-1.302;2023-07-08T06:06:15;99916.06;;;21.35;83.33
48652;BME280;34442;52.362;-1.302;2023-07-08T06:08:41;99922.50;;;21.49;82.91
48652;BME280;34442;52.362;-1.302;2023-07-08T06:11:06;99929.44;;;21.60;82.66
48652;BME280;34442;52.362;-1.302;2023-07-08T06:13:32;99927.75;;;21.64;82.92
48652;BME280;34442;52.362;-1.302;2023-07-08T06:15:57;99925.75;;;21.75;82.88
48652;BME280;34442;52.362;-1.302;2023-07-08T06:18:23;99929.81;;;21.77;82.84
48652;BME280;34442;52.362;-1.302;2023-07-08T06:20:56;99928.63;;;21.84;83.84
48652;BME280;34442;52.362;-1.302;2023-07-08T06:23:22;99935.94;;;21.69;88.32
48652;BME280;34442;52.362;-1.302;2023-07-08T06:25:48;99926.44;;;21.86;83.27
48652;BME280;34442;52.362;-1.302;2023-07-08T06:28:13;99931.53;;;21.92;82.88
48652;BME280;34442;52.362;-1.302;2023-07-08T06:30:39;99931.66;;;22.06;82.88
48652;BME280;34442;52.362;-1.302;2023-07-08T06:33:04;99932.88;;;22.19;82.50
48652;BME280;34442;52.362;-1.302;2023-07-08T06:35:30;99940.66;;;22.31;82.46
48652;BME280;34442;52.362;-1.302;2023-07-08T06:37:55;99937.47;;;22.42;82.55
48652;BME280;34442;52.362;-1.302;2023-07-08T06:40:21;99935.41;;;22.53;82.11
48652;BME280;34442;52.362;-1.302;2023-07-08T06:42:47;99943.97;;;22.65;82.17
48652;BME280;34442;52.362;-1.302;2023-07-08T06:45:12;99948.88;;;22.68;82.07
48652;BME280;34442;52.362;-1.302;2023-07-08T06:47:38;99948.09;;;22.82;81.75
48652;BME280;34442;52.362;-1.302;2023-07-08T06:50:03;99959.66;;;22.78;82.14
48652;BME280;34442;52.362;-1.302;2023-07-08T06:52:32;99956.88;;;22.84;82.25
48652;BME280;34442;52.362;-1.302;2023-07-08T06:55:00;99964.78;;;22.85;82.33
48652;BME280;34442;52.362;-1.302;2023-07-08T06:57:26;99973.38;;;22.78;82.64
48652;BME280;34442;52.362;-1.302;2023-07-08T06:59:52;99967.97;;;22.73;83.18
48652;BME280;34442;52.362;-1.302;2023-07-08T07:02:17;99961.75;;;22.68;83.32
48652;BME280;34442;52.362;-1.302;2023-07-08T07:04:42;99957.91;;;22.69;83.30
48652;BME280;34442;52.362;-1.302;2023-07-08T07:07:09;99958.56;;;22.61;83.62
48652;BME280;34442;52.362;-1.302;2023-07-08T07:09:34;99953.81;;;22.66;83.61
48652;BME280;34442;52.362;-1.302;2023-07-08T07:12:00;99948.56;;;22.70;83.51
48652;BME280;34442;52.362;-1.302;2023-07-08T07:14:25;99947.59;;;22.79;83.43
48652;BME280;34442;52.362;-1.302;2023-07-08T07:16:50;99949.63;;;22.93;83.11
48652;BME280;34442;52.362;-1.302;2023-07-08T07:19:16;99952.34;;;22.93;83.45
48652;BME280;34442;52.362;-1.302;2023-07-08T07:21:41;99951.66;;;23.01;83.35
48652;BME280;34442;52.362;-1.302;2023-07-08T07:24:07;99958.44;;;23.22;82.82
48652;BME280;34442;52.362;-1.302;2023-07-08T07:26:32;99968.19;;;23.28;82.46
48652;BME280;34442;52.362;-1.302;2023-07-08T07:28:58;99961.97;;;23.23;82.89
48652;BME280;34442;52.362;-1.302;2023-07-08T07:31:23;99955.25;;;23.15;82.73
48652;BME280;34442;52.362;-1.302;2023-07-08T07:33:49;99949.97;;;23.19;82.94
48652;BME280;34442;52.362;-1.302;2023-07-08T07:36:15;99964.34;;;23.30;83.00
48652;BME280;34442;52.362;-1.302;2023-07-08T07:38:40;99961.03;;;23.46;82.39
48652;BME280;34442;52.362;-1.302;2023-07-08T07:41:06;99957.16;;;23.61;81.72
48652;BME280;34442;52.362;-1.302;2023-07-08T07:43:33;99967.22;;;23.52;82.58
48652;BME280;34442;52.362;-1.302;2023-07-08T07:45:59;99982.75;;;23.43;83.25
48652;BME280;34442;52.362;-1.302;2023-07-08T07:48:24;99975.34;;;23.57;83.17
48652;BME280;34442;52.362;-1.302;2023-07-08T07:50:50;99981.03;;;23.61;83.08
48652;BME280;34442;52.362;-1.302;2023-07-08T07:53:19;99965.50;;;23.56;83.75
48652;BME280;34442;52.362;-1.302;2023-07-08T07:55:44;99969.00;;;23.75;83.33
48652;BME280;34442;52.362;-1.302;2023-07-08T07:58:10;99975.72;;;23.83;83.33
48652;BME280;34442;52.362;-1.302;2023-07-08T08:00:38;99983.63;;;23.98;82.99
48652;BME280;34442;52.362;-1.302;2023-07-08T08:03:04;99997.97;;;24.09;83.00
48652;BME280;34442;52.362;-1.302;2023-07-08T08:05:30;100002.56;;;24.14;82.80
48652;BME280;34442;52.362;-1.302;2023-07-08T08:07:55;99993.19;;;24.15;83.49
48652;BME280;34442;52.362;-1.302;2023-07-08T08:10:22;99989.91;;;24.26;83.30
48652;BME280;34442;52.362;-1.302;2023-07-08T08:12:47;99989.63;;;24.28;83.22
48652;BME280;34442;52.362;-1.302;2023-07-08T08:15:16;99993.56;;;24.36;83.42
48652;BME280;34442;52.362;-1.302;2023-07-08T08:17:41;99981.88;;;24.44;83.08
48652;BME280;34442;52.362;-1.302;2023-07-08T08:20:08;99990.22;;;24.53;82.91
48652;BME280;34442;52.362;-1.302;2023-07-08T08:22:33;99991.72;;;24.59;82.68
48652;BME280;34442;52.362;-1.302;2023-07-08T08:24:59;99995.41;;;24.76;82.39
48652;BME280;34442;52.362;-1.302;2023-07-08T08:27:24;100002.25;;;25.01;81.82
48652;BME280;34442;52.362;-1.302;2023-07-08T08:29:49;100003.97;;;25.34;80.53
48652;BME280;34442;52.362;-1.302;2023-07-08T08:32:15;100013.16;;;25.52;79.75
48652;BME280;34442;52.362;-1.302;2023-07-08T08:34:40;100017.81;;;25.51;78.69
48652;BME280;34442;52.362;-1.302;2023-07-08T08:37:06;100022.38;;;25.47;77.69
48652;BME280;34442;52.362;-1.302;2023-07-08T08:39:31;100033.00;;;25.40;76.46
48652;BME280;34442;52.362;-1.302;2023-07-08T08:41:57;100030.06;;;25.36;75.94
48652;BME280;34442;52.362;-1.302;2023-07-08T08:44:32;100031.13;;;25.27;71.30
48652;BME280;34442;52.362;-1.302;2023-07-08T08:47:11;100034.97;;;25.03;72.47
48652;BME280;34442;52.362;-1.302;2023-07-08T08:49:44;100026.44;;;24.91;74.56
48652;BME280;34442;52.362;-1.302;2023-07-08T08:52:15;100041.22;;;24.95;75.46
48652;BME280;34442;52.362;-1.302;2023-07-08T08:54:41;100042.75;;;25.23;74.59
48652;BME280;34442;52.362;-1.302;2023-07-08T08:57:38;100032.78;;;25.59;72.13
48652;BME280;34442;52.362;-1.302;2023-07-08T09:00:02;100043.19;;;25.70;73.30
48652;BME280;34442;52.362;-1.302;2023-07-08T09:02:33;100048.22;;;25.68;73.52
48652;BME280;34442;52.362;-1.302;2023-07-08T09:05:08;100063.50;;;25.52;72.33
48652;BME280;34442;52.362;-1.302;2023-07-08T09:07:41;100079.97;;;25.21;74.03
48652;BME280;34442;52.362;-1.302;2023-07-08T09:10:21;100086.44;;;25.03;72.99
48652;BME280;34442;52.362;-1.302;2023-07-08T09:12:53;100089.00;;;24.85;75.86
48652;BME280;34442;52.362;-1.302;2023-07-08T09:15:20;100083.50;;;24.85;75.91
48652;BME280;34442;52.362;-1.302;2023-07-08T09:17:46;100066.38;;;24.88;75.74
48652;BME280;34442;52.362;-1.302;2023-07-08T09:22:44;100072.78;;;25.11;75.43
48652;BME280;34442;52.362;-1.302;2023-07-08T09:27:51;100112.50;;;25.64;74.63
48652;BME280;34442;52.362;-1.302;2023-07-08T09:30:20;100104.84;;;25.83;74.34
48652;BME280;34442;52.362;-1.302;2023-07-08T09:32:46;100102.91;;;25.84;74.62
48652;BME280;34442;52.362;-1.302;2023-07-08T09:35:18;100093.59;;;25.93;74.58
48652;BME280;34442;52.362;-1.302;2023-07-08T09:37:48;100107.22;;;25.98;74.65
48652;BME280;34442;52.362;-1.302;2023-07-08T09:40:23;100110.94;;;25.94;74.07
48652;BME280;34442;52.362;-1.302;2023-07-08T09:43:03;100112.94;;;25.80;75.51
48652;BME280;34442;52.362;-1.302;2023-07-08T09:45:41;100130.16;;;25.85;74.89
48652;BME280;34442;52.362;-1.302;2023-07-08T09:48:16;100146.34;;;25.64;75.11
48652;BME280;34442;52.362;-1.302;2023-07-08T09:50:43;100164.19;;;25.44;77.07
48652;BME280;34442;52.362;-1.302;2023-07-08T09:53:16;100152.78;;;25.37;76.88
48652;BME280;34442;52.362;-1.302;2023-07-08T09:55:41;100160.97;;;25.29;77.15
48652;BME280;34442;52.362;-1.302;2023-07-08T09:58:11;100160.88;;;25.20;76.72
48652;BME280;34442;52.362;-1.302;2023-07-08T10:00:40;100164.25;;;25.03;79.13
48652;BME280;34442;52.362;-1.302;2023-07-08T10:03:15;100150.22;;;24.91;82.15
48652;BME280;34442;52.362;-1.302;2023-07-08T10:05:43;100156.63;;;24.72;82.50
48652;BME280;34442;52.362;-1.302;2023-07-08T10:08:16;100152.78;;;24.46;86.12
48652;BME280;34442;52.362;-1.302;2023-07-08T10:10:42;100159.56;;;24.35;86.78
48652;BME280;34442;52.362;-1.302;2023-07-08T10:13:17;100173.22;;;24.40;90.21
48652;BME280;34442;52.362;-1.302;2023-07-08T10:16:09;100174.75;;;24.32;95.43
48652;BME280;34442;52.362;-1.302;2023-07-08T10:18:37;100176.75;;;24.26;91.13
48652;BME280;34442;52.362;-1.302;2023-07-08T10:21:36;100180.25;;;24.32;97.55
48652;BME280;34442;52.362;-1.302;2023-07-08T10:27:15;100171.81;;;24.56;95.91
48652;BME280;34442;52.362;-1.302;2023-07-08T10:32:28;100163.09;;;25.32;90.91
48652;BME280;34442;52.362;-1.302;2023-07-08T10:35:28;100165.50;;;25.69;91.51
48652;BME280;34442;52.362;-1.302;2023-07-08T10:43:59;100173.22;;;25.22;83.84
48652;BME280;34442;52.362;-1.302;2023-07-08T10:46:55;100155.78;;;25.13;84.59
48652;BME280;34442;52.362;-1.302;2023-07-08T10:52:42;100141.16;;;24.76;82.10
48652;BME280;34442;52.362;-1.302;2023-07-08T10:55:38;100146.06;;;24.80;82.69
48652;BME280;34442;52.362;-1.302;2023-07-08T11:01:15;100165.41;;;24.74;82.00
48652;BME280;34442;52.362;-1.302;2023-07-08T11:11:29;100192.63;;;24.30;84.08
48652;BME280;34442;52.362;-1.302;2023-07-08T11:14:04;100204.91;;;24.18;84.67
48652;BME280;34442;52.362;-1.302;2023-07-08T11:16:44;100205.59;;;24.10;85.27
48652;BME280;34442;52.362;-1.302;2023-07-08T11:19:17;100207.50;;;23.96;86.84
48652;BME280;34442;52.362;-1.302;2023-07-08T11:21:48;100212.44;;;23.80;87.98
48652;BME280;34442;52.362;-1.302;2023-07-08T11:27:15;100268.47;;;23.17;99.01
48652;BME280;34442;52.362;-1.302;2023-07-08T11:29:50;100256.16;;;22.62;97.55
48652;BME280;34442;52.362;-1.302;2023-07-08T11:32:19;100264.09;;;22.34;99.70
48652;BME280;34442;52.362;-1.302;2023-07-08T11:34:47;100267.50;;;22.21;100.00
48652;BME280;34442;52.362;-1.302;2023-07-08T11:37:14;100267.06;;;22.03;100.00
48652;BME280;34442;52.362;-1.302;2023-07-08T11:39:43;100265.25;;;21.89;100.00
48652;BME280;34442;52.362;-1.302;2023-07-08T11:42:17;100256.84;;;21.75;100.00
48652;BME280;34442;52.362;-1.302;2023-07-08T11:44:44;100255.28;;;21.64;100.00
48652;BME280;34442;52.362;-1.302;2023-07-08T11:47:22;100238.25;;;21.22;100.00
48652;BME280;34442;52.362;-1.302;2023-07-08T11:49:51;100237.47;;;21.17;100.00
48652;BME280;34442;52.362;-1.302;2023-07-08T11:52:20;100241.84;;;21.13;100.00
48652;BME280;34442;52.362;-1.302;2023-07-08T11:54:48;100228.53;;;20.96;100.00
48652;BME280;34442;52.362;-1.302;2023-07-08T11:57:24;100228.78;;;20.94;100.00
48652;BME280;34442;52.362;-1.302;2023-07-08T12:00:30;100232.69;;;20.83;100.00
48652;BME280;34442;52.362;-1.302;2023-07-08T12:02:58;100231.34;;;20.65;100.00
48652;BME280;34442;52.362;-1.302;2023-07-08T12:05:37;100228.91;;;20.64;100.00
48652;BME280;34442;52.362;-1.302;2023-07-08T12:08:15;100220.41;;;20.65;100.00
48652;BME280;34442;52.362;-1.302;2023-07-08T12:10:46;100215.78;;;20.61;100.00
48652;BME280;34442;52.362;-1.302;2023-07-08T12:13:15;100212.81;;;20.62;100.00
48652;BME280;34442;52.362;-1.302;2023-07-08T12:15:41;100209.25;;;20.56;100.00
48652;BME280;34442;52.362;-1.302;2023-07-08T12:18:19;100205.97;;;20.60;100.00
48652;BME280;34442;52.362;-1.302;2023-07-08T12:20:53;100193.09;;;20.65;100.00
48652;BME280;34442;52.362;-1.302;2023-07-08T12:23:21;100188.97;;;20.73;100.00
48652;BME280;34442;52.362;-1.302;2023-07-08T12:25:46;100189.78;;;20.73;100.00
48652;BME280;34442;52.362;-1.302;2023-07-08T12:28:12;100182.13;;;20.80;100.00
48652;BME280;34442;52.362;-1.302;2023-07-08T12:30:39;100182.91;;;20.91;100.00
48652;BME280;34442;52.362;-1.302;2023-07-08T12:33:11;100179.00;;;21.02;100.00
48652;BME280;34442;52.362;-1.302;2023-07-08T12:35:37;100152.25;;;20.99;100.00
48652;BME280;34442;52.362;-1.302;2023-07-08T12:38:12;100155.09;;;21.34;100.00
48652;BME280;34442;52.362;-1.302;2023-07-08T12:40:41;100150.66;;;21.43;100.00
48652;BME280;34442;52.362;-1.302;2023-07-08T12:43:09;100148.41;;;21.50;100.00
48652;BME280;34442;52.362;-1.302;2023-07-08T12:45:35;100145.16;;;21.48;100.00
48652;BME280;34442;52.362;-1.302;2023-07-08T12:48:01;100163.50;;;21.42;100.00
48652;BME280;34442;52.362;-1.302;2023-07-08T12:50:27;100157.44;;;21.50;100.00
48652;BME280;34442;52.362;-1.302;2023-07-08T12:52:52;100182.81;;;21.56;100.00
48652;BME280;34442;52.362;-1.302;2023-07-08T12:55:17;100185.34;;;21.52;100.00
48652;BME280;34442;52.362;-1.302;2023-07-08T12:57:46;100196.28;;;21.52;100.00
48652;BME280;34442;52.362;-1.302;2023-07-08T13:00:16;100204.75;;;21.51;100.00
48652;BME280;34442;52.362;-1.302;2023-07-08T13:02:46;100218.38;;;21.61;100.00
48652;BME280;34442;52.362;-1.302;2023-07-08T13:05:13;100228.47;;;21.66;100.00
48652;BME280;34442;52.362;-1.302;2023-07-08T13:07:43;100232.56;;;21.63;100.00
48652;BME280;34442;52.362;-1.302;2023-07-08T13:10:19;100241.81;;;21.72;100.00
48652;BME280;34442;52.362;-1.302;2023-07-08T13:12:47;100247.03;;;21.74;100.00
48652;BME280;34442;52.362;-1.302;2023-07-08T13:15:21;100256.81;;;21.80;100.00
48652;BME280;34442;52.362;-1.302;2023-07-08T13:17:48;100253.53;;;21.83;100.00
48652;BME280;34442;52.362;-1.302;2023-07-08T13:20:15;100257.06;;;21.84;100.00
48652;BME280;34442;52.362;-1.302;2023-07-08T13:22:42;100260.34;;;21.86;100.00
48652;BME280;34442;52.362;-1.302;2023-07-08T13:25:16;100266.91;;;21.90;100.00
48652;BME280;34442;52.362;-1.302;2023-07-08T13:27:42;100272.69;;;21.83;100.00
48652;BME280;34442;52.362;-1.302;2023-07-08T13:30:19;100272.22;;;21.71;100.00
48652;BME280;34442;52.362;-1.302;2023-07-08T13:32:48;100277.97;;;21.69;100.00
48652;BME280;34442;52.362;-1.302;2023-07-08T13:35:21;100279.03;;;21.73;100.00
48652;BME280;34442;52.362;-1.302;2023-07-08T13:37:47;100275.16;;;21.79;100.00